createdAt,value
2023-03-30T00:01:49.252Z,97465.81
2023-03-30T00:04:16.115Z,97475.13
2023-03-30T00:06:42.980Z,97458.00
2023-03-30T00:09:10.510Z,97458.47
2023-03-30T00:11:37.957Z,97447.41
2023-03-30T00:14:04.480Z,97447.59
2023-03-30T00:16:31.428Z,97453.13
2023-03-30T00:18:58.289Z,97447.75
2023-03-30T00:21:25.173Z,97458.19
2023-03-30T00:23:52.240Z,97461.59
2023-03-30T00:26:20.408Z,97463.19
2023-03-30T00:28:48.028Z,97452.41
2023-03-30T00:31:16.557Z,97455.63
2023-03-30T00:33:46.890Z,97447.84
2023-03-30T00:36:14.839Z,97457.72
2023-03-30T00:38:41.426Z,97448.56
2023-03-30T00:41:07.964Z,97442.50
2023-03-30T00:43:34.474Z,97433.41
2023-03-30T00:46:01.164Z,97429.91
2023-03-30T00:48:36.765Z,97435.16
2023-03-30T00:51:05.425Z,97430.06
2023-03-30T00:53:36.577Z,97428.09
2023-03-30T00:56:03.660Z,97422.06
2023-03-30T00:58:31.169Z,97418.72
2023-03-30T01:00:59.691Z,97413.03
2023-03-30T01:03:37.657Z,97404.81
2023-03-30T01:06:06.184Z,97399.63
2023-03-30T01:08:33.985Z,97394.38
2023-03-30T01:11:01.685Z,97388.72
2023-03-30T01:13:29.707Z,97392.66
2023-03-30T01:16:33.597Z,97390.00
2023-03-30T01:19:21.146Z,97378.72
2023-03-30T01:22:15.204Z,97374.94
2023-03-30T01:25:18.367Z,97373.56
2023-03-30T01:28:13.273Z,97368.81
2023-03-30T01:31:00.422Z,97367.63
2023-03-30T01:33:52.399Z,97359.19
2023-03-30T01:36:37.318Z,97358.84
2023-03-30T01:39:09.749Z,97353.75
2023-03-30T01:41:43.087Z,97345.38
2023-03-30T01:44:39.013Z,97358.13
2023-03-30T01:47:09.943Z,97350.19
2023-03-30T01:49:41.540Z,97353.91
2023-03-30T01:52:28.594Z,97339.44
2023-03-30T01:55:04.694Z,97330.91
2023-03-30T01:57:33.995Z,97315.50
2023-03-30T02:00:25.338Z,97308.84
2023-03-30T02:02:56.213Z,97322.88
2023-03-30T02:05:23.000Z,97314.50
2023-03-30T02:07:51.947Z,97304.81
2023-03-30T02:10:18.444Z,97308.63
2023-03-30T02:12:45.132Z,97310.75
2023-03-30T02:15:11.664Z,97294.19
2023-03-30T02:17:38.295Z,97289.84
2023-03-30T02:20:09.134Z,97293.41
2023-03-30T02:22:37.203Z,97292.56
2023-03-30T02:25:05.534Z,97282.41
2023-03-30T02:27:32.811Z,97277.53
2023-03-30T02:29:59.324Z,97277.75
2023-03-30T02:32:27.920Z,97282.19
2023-03-30T02:35:03.686Z,97266.06
2023-03-30T02:37:56.585Z,97258.72
2023-03-30T02:40:57.590Z,97260.19
2023-03-30T02:43:47.586Z,97274.41
2023-03-30T02:46:33.978Z,97275.81
2023-03-30T02:49:17.150Z,97268.72
2023-03-30T02:51:48.724Z,97278.69
2023-03-30T02:54:34.074Z,97277.25
2023-03-30T02:57:08.263Z,97275.78
2023-03-30T02:59:55.033Z,97272.56
2023-03-30T03:02:23.573Z,97265.13
2023-03-30T03:04:50.398Z,97264.69
2023-03-30T03:07:17.958Z,97264.69
2023-03-30T03:09:44.436Z,97266.28
2023-03-30T03:12:11.061Z,97262.22
2023-03-30T03:14:38.359Z,97258.91
2023-03-30T03:17:05.850Z,97251.88
2023-03-30T03:19:32.402Z,97248.00
2023-03-30T03:21:58.875Z,97251.56
2023-03-30T03:24:25.349Z,97244.53
2023-03-30T03:26:51.839Z,97242.13
2023-03-30T03:29:20.358Z,97239.38
2023-03-30T03:31:47.234Z,97238.59
2023-03-30T03:34:14.002Z,97248.06
2023-03-30T03:36:43.605Z,97227.69
2023-03-30T03:39:10.160Z,97225.69
2023-03-30T03:41:36.647Z,97220.19
2023-03-30T03:44:03.116Z,97213.03
2023-03-30T03:46:30.072Z,97204.13
2023-03-30T03:48:56.862Z,97195.81
2023-03-30T03:51:23.466Z,97190.41
2023-03-30T03:53:50.002Z,97194.66
2023-03-30T03:56:16.886Z,97198.00
2023-03-30T03:58:43.656Z,97191.16
2023-03-30T04:01:10.241Z,97197.72
2023-03-30T04:03:38.163Z,97193.31
2023-03-30T04:06:04.791Z,97188.94
2023-03-30T04:08:31.346Z,97178.06
2023-03-30T04:11:08.132Z,97173.47
2023-03-30T04:13:36.736Z,97166.72
2023-03-30T04:16:04.640Z,97165.25
2023-03-30T04:18:33.947Z,97167.56
2023-03-30T04:21:03.025Z,97163.56
2023-03-30T04:23:33.738Z,97159.16
2023-03-30T04:26:04.896Z,97164.38
2023-03-30T04:28:33.206Z,97163.22
2023-03-30T04:31:01.096Z,97165.91
2023-03-30T04:33:28.054Z,97166.34
2023-03-30T04:35:54.571Z,97173.09
2023-03-30T04:38:24.463Z,97177.59
2023-03-30T04:40:51.626Z,97168.16
2023-03-30T04:43:21.769Z,97166.97
2023-03-30T04:45:55.678Z,97174.63
2023-03-30T04:48:24.138Z,97181.28
2023-03-30T04:50:50.970Z,97171.72
2023-03-30T04:53:20.215Z,97166.53
2023-03-30T04:55:50.563Z,97172.09
2023-03-30T04:58:16.971Z,97158.28
2023-03-30T05:00:44.048Z,97152.31
2023-03-30T05:03:10.871Z,97151.50
2023-03-30T05:05:37.526Z,97156.59
2023-03-30T05:08:04.917Z,97154.56
2023-03-30T05:10:31.495Z,97154.88
2023-03-30T05:12:57.998Z,97156.91
2023-03-30T05:15:24.560Z,97147.59
2023-03-30T05:17:51.066Z,97157.06
2023-03-30T05:20:18.168Z,97151.50
2023-03-30T05:22:46.886Z,97149.19
2023-03-30T05:25:13.719Z,97154.00
2023-03-30T05:27:40.277Z,97144.06
2023-03-30T05:30:15.856Z,97161.50
2023-03-30T05:32:42.453Z,97149.84
2023-03-30T05:35:09.103Z,97161.25
2023-03-30T05:37:35.885Z,97156.13
2023-03-30T05:40:05.855Z,97169.19
2023-03-30T05:42:32.339Z,97159.63
2023-03-30T05:44:58.808Z,97159.16
2023-03-30T05:47:25.335Z,97161.66
2023-03-30T05:49:52.214Z,97153.63
2023-03-30T05:52:18.873Z,97149.50
2023-03-30T05:54:46.019Z,97163.72
2023-03-30T05:57:12.799Z,97157.81
2023-03-30T05:59:39.376Z,97156.41
2023-03-30T06:02:08.369Z,97161.84
2023-03-30T06:04:36.024Z,97157.81
2023-03-30T06:07:02.559Z,97160.75
2023-03-30T06:09:29.032Z,97153.94
2023-03-30T06:11:55.758Z,97150.06
2023-03-30T06:14:22.264Z,97151.72
2023-03-30T06:16:48.821Z,97141.56
2023-03-30T06:19:15.327Z,97136.06
2023-03-30T06:21:42.235Z,97132.19
2023-03-30T06:24:08.740Z,97139.84
2023-03-30T06:26:35.230Z,97125.34
2023-03-30T06:29:02.508Z,97128.31
2023-03-30T06:31:29.099Z,97137.00
2023-03-30T06:33:56.007Z,97135.06
2023-03-30T06:36:22.564Z,97133.06
2023-03-30T06:39:09.450Z,97139.03
2023-03-30T06:41:35.984Z,97152.16
2023-03-30T06:44:02.465Z,97139.19
2023-03-30T06:46:29.261Z,97138.13
2023-03-30T06:48:56.101Z,97148.88
2023-03-30T06:51:22.797Z,97159.19
2023-03-30T06:53:49.286Z,97140.72
2023-03-30T06:56:15.809Z,97139.59
2023-03-30T06:58:42.305Z,97140.81
2023-03-30T07:01:13.272Z,97124.53
2023-03-30T07:03:41.202Z,97124.88
2023-03-30T07:06:08.559Z,97125.72
2023-03-30T07:08:35.913Z,97140.03
2023-03-30T07:11:03.972Z,97123.34
2023-03-30T07:13:30.951Z,97131.44
2023-03-30T07:15:57.740Z,97123.97
2023-03-30T07:18:24.328Z,97130.00
2023-03-30T07:20:51.422Z,97116.09
2023-03-30T07:23:18.821Z,97118.94
2023-03-30T07:25:46.206Z,97128.09
2023-03-30T07:28:14.012Z,97131.66
2023-03-30T07:30:40.608Z,97137.66
2023-03-30T07:33:07.284Z,97139.66
2023-03-30T07:35:34.327Z,97132.94
2023-03-30T07:38:03.687Z,97128.16
2023-03-30T07:40:30.950Z,97140.47
2023-03-30T07:42:57.650Z,97135.75
2023-03-30T07:45:24.220Z,97141.38
2023-03-30T07:47:51.224Z,97132.63
2023-03-30T07:50:17.790Z,97131.81
2023-03-30T07:52:45.556Z,97142.56
2023-03-30T07:55:12.034Z,97140.19
2023-03-30T07:57:38.530Z,97154.53
2023-03-30T08:00:06.358Z,97144.19
2023-03-30T08:02:33.177Z,97144.19
2023-03-30T08:05:00.174Z,97138.22
2023-03-30T08:07:27.993Z,97146.59
2023-03-30T08:09:56.669Z,97155.72
2023-03-30T08:12:23.215Z,97145.69
2023-03-30T08:14:49.899Z,97136.53
2023-03-30T08:17:19.157Z,97139.34
2023-03-30T08:19:46.411Z,97128.22
2023-03-30T08:22:12.939Z,97146.13
2023-03-30T08:24:39.776Z,97135.28
2023-03-30T08:27:07.078Z,97123.69
2023-03-30T08:29:33.672Z,97124.25
2023-03-30T08:32:00.254Z,97124.91
2023-03-30T08:34:27.477Z,97126.50
2023-03-30T08:36:54.749Z,97122.91
2023-03-30T08:39:21.531Z,97124.22
2023-03-30T08:41:57.373Z,97116.34
2023-03-30T08:44:39.974Z,97128.72
2023-03-30T08:47:13.080Z,97131.19
2023-03-30T08:49:42.606Z,97135.16
2023-03-30T08:52:11.323Z,97147.09
2023-03-30T08:54:37.820Z,97139.09
2023-03-30T08:57:12.171Z,97127.94
2023-03-30T09:00:00.577Z,97128.28
2023-03-30T09:02:32.086Z,97105.50
2023-03-30T09:05:04.992Z,97121.31
2023-03-30T09:07:45.164Z,97112.94
2023-03-30T09:10:12.843Z,97128.53
2023-03-30T09:12:56.509Z,97124.81
2023-03-30T09:15:27.591Z,97104.16
2023-03-30T09:18:27.319Z,97118.88
2023-03-30T09:20:54.667Z,97118.88
2023-03-30T09:23:21.509Z,97116.53
2023-03-30T09:25:54.024Z,97120.88
2023-03-30T09:28:24.412Z,97102.16
2023-03-30T09:31:10.804Z,97118.09
2023-03-30T09:34:02.184Z,97108.44
2023-03-30T09:37:03.116Z,97101.84
2023-03-30T09:39:32.920Z,97107.09
2023-03-30T09:42:24.720Z,97117.56
2023-03-30T09:45:17.568Z,97126.31
2023-03-30T09:47:44.340Z,97144.81
2023-03-30T09:50:18.906Z,97127.34
2023-03-30T09:52:56.450Z,97143.28
2023-03-30T09:55:27.286Z,97139.63
2023-03-30T09:57:55.877Z,97128.88
2023-03-30T10:00:32.373Z,97126.47
2023-03-30T10:03:10.724Z,97132.84
2023-03-30T10:05:37.755Z,97130.06
2023-03-30T10:08:07.228Z,97128.78
2023-03-30T10:10:38.970Z,97128.00
2023-03-30T10:13:12.602Z,97133.97
2023-03-30T10:15:40.917Z,97183.06
2023-03-30T10:18:42.775Z,97197.94
2023-03-30T10:21:25.742Z,97204.09
2023-03-30T10:24:04.052Z,97216.63
2023-03-30T10:26:38.590Z,97223.25
2023-03-30T10:29:07.411Z,97205.25
2023-03-30T10:31:37.709Z,97215.59
2023-03-30T10:34:07.246Z,97200.56
2023-03-30T10:36:40.840Z,97200.34
2023-03-30T10:39:23.296Z,97191.28
2023-03-30T10:41:53.228Z,97195.56
2023-03-30T10:44:29.026Z,97202.72
2023-03-30T10:47:04.395Z,97201.94
2023-03-30T10:49:38.911Z,97195.59
2023-03-30T10:53:00.744Z,97188.44
2023-03-30T10:56:04.749Z,97188.50
2023-03-30T10:58:50.488Z,97200.03
2023-03-30T11:01:38.272Z,97198.88
2023-03-30T11:04:22.586Z,97197.31
2023-03-30T11:06:51.026Z,97198.97
2023-03-30T11:09:22.405Z,97198.63
2023-03-30T11:11:55.074Z,97198.59
2023-03-30T11:14:24.016Z,97193.41
2023-03-30T11:17:08.937Z,97201.75
2023-03-30T11:19:39.032Z,97194.25
2023-03-30T11:22:19.418Z,97187.97
2023-03-30T11:24:46.248Z,97180.78
2023-03-30T11:30:09.771Z,97186.00
2023-03-30T11:32:42.126Z,97179.63
2023-03-30T11:35:27.045Z,97187.56
2023-03-30T11:37:57.183Z,97172.31
2023-03-30T11:40:26.778Z,97167.84
2023-03-30T11:42:53.741Z,97169.19
2023-03-30T11:45:43.479Z,97173.56
2023-03-30T11:48:29.634Z,97179.16
2023-03-30T11:51:15.550Z,97173.63
2023-03-30T11:53:56.549Z,97175.25
2023-03-30T11:56:40.078Z,97166.88
2023-03-30T11:59:17.597Z,97173.63
2023-03-30T12:02:06.104Z,97170.44
2023-03-30T12:04:44.087Z,97164.09
2023-03-30T12:07:18.054Z,97167.28
2023-03-30T12:09:56.229Z,97153.34
2023-03-30T12:12:32.648Z,97182.41
2023-03-30T12:15:19.082Z,97194.75
2023-03-30T12:18:00.543Z,97199.84
2023-03-30T12:20:36.248Z,97204.91
2023-03-30T12:23:10.012Z,97201.63
2023-03-30T12:26:09.990Z,97202.63
2023-03-30T12:28:58.323Z,97199.09
2023-03-30T12:31:48.041Z,97209.16
2023-03-30T12:34:14.589Z,97204.59
2023-03-30T12:36:41.573Z,97199.09
2023-03-30T12:39:25.848Z,97215.81
2023-03-30T12:42:04.372Z,97207.03
2023-03-30T12:44:39.759Z,97205.47
2023-03-30T12:47:19.253Z,97190.75
2023-03-30T12:50:09.930Z,97191.53
2023-03-30T12:53:14.248Z,97193.50
2023-03-30T12:55:54.131Z,97197.03
2023-03-30T12:58:41.229Z,97188.38
2023-03-30T13:01:24.447Z,97190.31
2023-03-30T13:03:52.758Z,97177.19
2023-03-30T13:06:24.137Z,97194.25
2023-03-30T13:08:54.499Z,97185.81
2023-03-30T13:11:22.732Z,97169.00
2023-03-30T13:14:14.610Z,97178.97
2023-03-30T13:16:50.407Z,97172.31
2023-03-30T13:19:21.202Z,97167.16
2023-03-30T13:21:54.866Z,97184.31
2023-03-30T13:24:32.719Z,97181.13
2023-03-30T13:27:14.292Z,97189.50
2023-03-30T13:29:41.341Z,97174.25
2023-03-30T13:32:26.460Z,97181.31
2023-03-30T13:35:07.500Z,97173.13
2023-03-30T13:37:37.372Z,97179.09
2023-03-30T13:43:05.021Z,97191.50
2023-03-30T13:45:35.609Z,97187.91
2023-03-30T13:48:24.112Z,97196.28
2023-03-30T13:50:56.418Z,97207.84
2023-03-30T13:53:22.904Z,97211.47
2023-03-30T13:55:49.447Z,97206.31
2023-03-30T13:58:23.532Z,97205.50
2023-03-30T14:01:00.678Z,97204.69
2023-03-30T14:04:00.772Z,97203.09
2023-03-30T14:06:28.796Z,97210.28
2023-03-30T14:09:14.719Z,97212.69
2023-03-30T14:11:45.811Z,97205.91
2023-03-30T14:14:29.253Z,97220.63
2023-03-30T14:16:56.333Z,97217.84
2023-03-30T14:19:36.689Z,97210.66
2023-03-30T14:22:12.127Z,97207.09
2023-03-30T14:24:38.901Z,97209.50
2023-03-30T14:27:12.255Z,97191.13
2023-03-30T14:29:45.872Z,97205.88
2023-03-30T14:32:14.930Z,97194.38
2023-03-30T14:34:48.410Z,97195.91
2023-03-30T14:37:14.905Z,97206.66
2023-03-30T14:39:46.805Z,97213.41
2023-03-30T14:42:20.114Z,97218.56
2023-03-30T14:44:48.456Z,97238.78
2023-03-30T14:47:15.985Z,97273.72
2023-03-30T14:49:43.468Z,97296.97
2023-03-30T14:52:17.921Z,97296.19
2023-03-30T14:54:51.558Z,97309.13
2023-03-30T14:57:29.014Z,97307.97
2023-03-30T15:00:02.121Z,97320.50
2023-03-30T15:02:30.541Z,97341.25
2023-03-30T15:04:57.395Z,97334.34
2023-03-30T15:07:23.983Z,97342.03
2023-03-30T15:09:54.500Z,97324.94
2023-03-30T15:12:35.565Z,97305.25
2023-03-30T15:15:03.649Z,97305.41
2023-03-30T15:17:30.426Z,97299.63
2023-03-30T15:19:57.914Z,97290.41
2023-03-30T15:22:33.987Z,97294.22
2023-03-30T15:25:06.226Z,97296.75
2023-03-30T15:27:33.664Z,97298.03
2023-03-30T15:30:01.869Z,97294.97
2023-03-30T15:32:35.142Z,97294.38
2023-03-30T15:35:13.730Z,97293.94
2023-03-30T15:37:51.890Z,97297.50
2023-03-30T15:40:47.385Z,97307.72
2023-03-30T15:43:20.299Z,97295.78
2023-03-30T15:45:48.913Z,97290.31
2023-03-30T15:48:17.583Z,97293.09
2023-03-30T15:50:46.057Z,97294.94
2023-03-30T15:53:14.237Z,97288.00
2023-03-30T15:55:41.105Z,97293.16
2023-03-30T15:58:12.827Z,97288.50
2023-03-30T16:00:39.312Z,97275.34
2023-03-30T16:03:06.627Z,97283.25
2023-03-30T16:05:36.141Z,97279.56
2023-03-30T16:08:03.467Z,97279.47
2023-03-30T16:10:31.409Z,97277.72
2023-03-30T16:12:58.311Z,97275.84
2023-03-30T16:15:29.110Z,97279.91
2023-03-30T16:17:55.746Z,97280.28
2023-03-30T16:20:24.247Z,97283.53
2023-03-30T16:22:50.819Z,97280.38
2023-03-30T16:25:21.128Z,97280.34
2023-03-30T16:27:47.800Z,97281.66
2023-03-30T16:30:18.116Z,97284.38
2023-03-30T16:32:44.706Z,97288.28
2023-03-30T16:35:11.185Z,97281.41
2023-03-30T16:37:38.121Z,97281.31
2023-03-30T16:40:33.678Z,97279.75
2023-03-30T16:43:00.236Z,97269.16
2023-03-30T16:45:27.122Z,97275.13
2023-03-30T16:47:53.706Z,97270.69
2023-03-30T16:50:42.667Z,97278.78
2023-03-30T16:53:09.780Z,97276.03
2023-03-30T16:55:36.721Z,97277.97
2023-03-30T16:58:03.979Z,97287.97
2023-03-30T17:00:32.014Z,97293.03
2023-03-30T17:02:58.581Z,97300.97
2023-03-30T17:05:25.297Z,97286.44
2023-03-30T17:07:54.869Z,97299.44
2023-03-30T17:10:29.049Z,97296.78
2023-03-30T17:12:55.737Z,97305.13
2023-03-30T17:15:22.958Z,97301.44
2023-03-30T17:17:49.658Z,97302.53
2023-03-30T17:20:26.597Z,97305.53
2023-03-30T17:22:53.141Z,97306.72
2023-03-30T17:25:26.141Z,97303.19
2023-03-30T17:27:56.003Z,97308.09
2023-03-30T17:30:26.600Z,97311.09
2023-03-30T17:32:55.133Z,97311.44
2023-03-30T17:35:21.913Z,97320.97
2023-03-30T17:37:48.382Z,97316.34
2023-03-30T17:40:26.480Z,97329.84
2023-03-30T17:42:53.073Z,97329.84
2023-03-30T17:45:21.128Z,97369.03
2023-03-30T17:47:47.945Z,97352.97
2023-03-30T17:50:18.815Z,97354.09
2023-03-30T17:52:46.131Z,97342.81
2023-03-30T17:55:13.432Z,97345.16
2023-03-30T17:57:39.931Z,97341.03
2023-03-30T18:00:16.216Z,97341.59
2023-03-30T18:02:42.799Z,97342.28
2023-03-30T18:05:09.564Z,97343.94
2023-03-30T18:07:36.510Z,97350.53
2023-03-30T18:10:15.562Z,97350.91
2023-03-30T18:12:42.025Z,97357.56
2023-03-30T18:15:08.601Z,97355.09
2023-03-30T18:17:35.230Z,97344.69
2023-03-30T18:20:01.836Z,97343.22
2023-03-30T18:22:28.309Z,97342.84
2023-03-30T18:24:54.859Z,97350.97
2023-03-30T18:27:21.357Z,97355.34
2023-03-30T18:29:48.113Z,97347.47
2023-03-30T18:32:14.586Z,97357.69
2023-03-30T18:34:41.231Z,97354.50
2023-03-30T18:37:08.417Z,97365.25
2023-03-30T18:39:34.906Z,97364.09
2023-03-30T18:42:01.381Z,97375.31
2023-03-30T18:44:27.987Z,97379.09
2023-03-30T18:46:54.458Z,97378.75
2023-03-30T18:49:22.800Z,97388.59
2023-03-30T18:51:49.375Z,97382.81
2023-03-30T18:54:15.848Z,97387.91
2023-03-30T18:56:43.159Z,97384.41
2023-03-30T18:59:10.336Z,97388.50
2023-03-30T19:01:37.874Z,97388.09
2023-03-30T19:04:04.483Z,97386.81
2023-03-30T19:06:31.052Z,97380.13
2023-03-30T19:08:57.518Z,97386.31
2023-03-30T19:11:24.702Z,97403.00
2023-03-30T19:13:51.466Z,97394.63
2023-03-30T19:16:18.742Z,97395.13
2023-03-30T19:18:45.876Z,97405.34
2023-03-30T19:21:14.178Z,97409.28
2023-03-30T19:23:40.738Z,97406.78
2023-03-30T19:26:07.455Z,97406.09
2023-03-30T19:28:34.208Z,97406.88
2023-03-30T19:31:10.246Z,97400.34
2023-03-30T19:33:36.780Z,97394.19
2023-03-30T19:36:03.490Z,97394.63
2023-03-30T19:38:30.656Z,97385.44
2023-03-30T19:40:59.737Z,97391.34
2023-03-30T19:43:26.202Z,97389.66
2023-03-30T19:45:52.776Z,97378.81
2023-03-30T19:48:19.814Z,97381.94
2023-03-30T19:50:47.852Z,97377.88
2023-03-30T19:53:14.668Z,97386.44
2023-03-30T19:55:42.981Z,97381.28
2023-03-30T19:58:12.557Z,97382.13
2023-03-30T20:00:43.655Z,97386.94
2023-03-30T20:03:11.665Z,97387.06
2023-03-30T20:05:38.329Z,97375.31
2023-03-30T20:08:17.052Z,97370.50
2023-03-30T20:10:49.633Z,97371.88
2023-03-30T20:13:17.023Z,97359.56
2023-03-30T20:15:43.507Z,97363.00
2023-03-30T20:18:10.065Z,97348.63
2023-03-30T20:20:36.565Z,97351.84
2023-03-30T20:23:03.979Z,97355.25
2023-03-30T20:25:30.460Z,97356.50
2023-03-30T20:27:57.056Z,97355.41
2023-03-30T20:30:23.540Z,97346.72
2023-03-30T20:33:06.913Z,97348.34
2023-03-30T20:35:35.852Z,97343.66
2023-03-30T20:38:04.463Z,97343.97
2023-03-30T20:40:31.144Z,97338.56
2023-03-30T20:43:03.158Z,97335.72
2023-03-30T20:45:30.589Z,97340.59
2023-03-30T20:47:57.501Z,97340.47
2023-03-30T20:50:24.050Z,97337.38
2023-03-30T20:52:52.686Z,97342.16
2023-03-30T20:55:19.223Z,97339.72
2023-03-30T20:57:45.867Z,97336.16
2023-03-30T21:00:13.614Z,97333.53
2023-03-30T21:02:40.313Z,97331.50
2023-03-30T21:05:08.465Z,97332.81
2023-03-30T21:07:34.992Z,97319.16
2023-03-30T21:10:01.454Z,97323.84
2023-03-30T21:12:28.956Z,97315.66
2023-03-30T21:14:55.440Z,97320.84
2023-03-30T21:17:21.979Z,97314.06
2023-03-30T21:19:48.463Z,97307.66
2023-03-30T21:22:14.948Z,97307.22
2023-03-30T21:24:41.418Z,97311.31
2023-03-30T21:27:07.913Z,97305.63
2023-03-30T21:29:34.632Z,97314.97
2023-03-30T21:32:01.325Z,97305.63
2023-03-30T21:34:27.816Z,97304.75
2023-03-30T21:36:54.405Z,97291.75
2023-03-30T21:39:21.232Z,97293.34
2023-03-30T21:41:47.750Z,97293.00
2023-03-30T21:44:14.218Z,97293.34
2023-03-30T21:46:40.755Z,97286.75
2023-03-30T21:49:07.250Z,97273.28
2023-03-30T21:51:33.734Z,97269.34
2023-03-30T21:54:00.200Z,97276.50
2023-03-30T21:56:29.072Z,97257.88
2023-03-30T21:58:55.736Z,97250.41
2023-03-30T22:01:24.168Z,97255.09
2023-03-30T22:03:51.272Z,97256.75
2023-03-30T22:06:17.789Z,97252.00
2023-03-30T22:08:47.704Z,97247.31
2023-03-30T22:11:16.465Z,97243.00
2023-03-30T22:13:42.988Z,97237.19
2023-03-30T22:16:14.178Z,97239.81
2023-03-30T22:18:41.142Z,97238.09
2023-03-30T22:21:08.425Z,97238.16
2023-03-30T22:23:35.127Z,97237.28
2023-03-30T22:26:01.630Z,97226.88
2023-03-30T22:28:28.177Z,97223.84
2023-03-30T22:30:54.699Z,97212.28
2023-03-30T22:33:21.194Z,97214.38
2023-03-30T22:35:48.125Z,97206.03
2023-03-30T22:38:14.692Z,97213.41
2023-03-30T22:40:43.888Z,97207.91
2023-03-30T22:43:11.163Z,97215.44
2023-03-30T22:45:37.837Z,97213.41
2023-03-30T22:48:04.777Z,97211.59
2023-03-30T22:50:31.575Z,97205.81
2023-03-30T22:52:58.162Z,97214.91
2023-03-30T22:55:24.915Z,97209.28
2023-03-30T22:57:52.622Z,97203.50
2023-03-30T23:00:19.380Z,97206.38
2023-03-30T23:02:46.132Z,97195.31
2023-03-30T23:05:14.843Z,97192.41
2023-03-30T23:07:44.369Z,97188.31
2023-03-30T23:10:14.658Z,97187.88
2023-03-30T23:12:41.850Z,97192.56
2023-03-30T23:15:09.805Z,97190.06
2023-03-30T23:17:36.637Z,97186.84
2023-03-30T23:20:05.703Z,97189.97
2023-03-30T23:22:32.213Z,97182.91
2023-03-30T23:24:58.824Z,97178.16
2023-03-30T23:27:25.501Z,97173.06
2023-03-30T23:29:52.739Z,97169.47
2023-03-30T23:32:19.263Z,97173.84
2023-03-30T23:34:46.514Z,97173.53
2023-03-30T23:37:13.001Z,97168.69
2023-03-30T23:39:39.459Z,97159.56
2023-03-30T23:42:06.444Z,97157.16
2023-03-30T23:44:32.936Z,97160.72
2023-03-30T23:46:59.413Z,97158.75
2023-03-30T23:49:26.395Z,97154.69
2023-03-30T23:51:53.381Z,97157.41
2023-03-30T23:54:19.856Z,97150.75
2023-03-30T23:56:46.999Z,97155.97
2023-03-30T23:59:13.562Z,97153.09
